SBTE

Senador Petrônio Portela Airport

Teresina, Brazil
TAF SBTE 221000Z 2212/2224 08006KT 9999 BKN020 TN28/2212Z TX33/2218Z PROB30 2212/2214 6000 BKN012 BECMG 2215/2217 SCT030 PROB30 2222/2224 TS BKN 015 FEW030CB RMK PEU
Issued Valid From Valid To
Jan-22 @ 10:00 UTC
(7 hours ago)
Jan-22 @ 12:00 UTC
(5 hours ago)
Jan-23 @ 00:00 UTC
(in 7 hours)
Expired Click to View Jan-22 @ 12:00 to Jan-22 @ 15:00
TAF SBTE 221000Z 2212/2224 08006KT 9999 BKN020 TN28/2212Z TX33/2218Z
Wind Visibility Clouds
80° at 6 knots 10,000+ meters
  • Broken at 2,000' AGL
Expired Click to View Jan-22 @ 12:00 to Jan-22 @ 14:00
PROB30 2212/2214 6000 BKN012
Visibility Clouds
6,003 meters
  • Broken at 1,200' AGL
Becoming Jan-22 @ 15:00 to Jan-23 @ 00:00
BECMG 2215/2217 SCT030
Wind Visibility Clouds
80° at 6 knots 10,000+ meters
  • Scattered at 3,000' AGL
Probable  (Probability 30%) Jan-22 @ 22:00 to Jan-23 @ 00:00
PROB30 2222/2224 TS BKN 015 FEW030CB RMK PEU
Clouds Conditions
  • Broken at 1,500' AGL
  • Few at 3,000' AGL
  • Thunderstorm
TAF SBTE 221000Z 2212/2224 08006KT 9999 BKN020 TN28/2212Z TX33/2218Z PROB30 2212/2214 6000 BKN012 BECMG 2215/2217 SCT030 PROB30 2222/2224 TS BKN 015 FEW030CB RMK PEU
Issued Jan-22 @ 10:00 UTC
(7 hours ago)
Valid From Jan-22 @ 12:00 UTC
(5 hours ago)
Valid To Jan-23 @ 00:00 UTC
(in 7 hours)
Jan-22 @ 12:00 - Jan-22 @ 15:00
Wind Visibility
80° at 6 knots 10,000+ meters
Clouds
  • Broken at 2,000' AGL
Jan-22 @ 12:00 - Jan-22 @ 14:00
Clouds
  • Broken at 1,200' AGL
Becoming Jan-22 @ 15:00 - Jan-23 @ 00:00
Wind Visibility
80° at 6 knots 10,000+ meters
Clouds
  • Scattered at 3,000' AGL
Probability 30% Probable Jan-22 @ 22:00 - Jan-23 @ 00:00
Clouds
  • Broken at 1,500' AGL
  • Few at 3,000' AGL
Conditions
  • Thunderstorm